sensor_id;sensor_type;location;lat;lon;timestamp;temperature;humidity
9772;DHT22;4925;52.588;13.370;2022-12-18T00:01:20;-3.50;99.90
9772;DHT22;4925;52.588;13.370;2022-12-18T00:03:46;-3.00;99.90
9772;DHT22;4925;52.588;13.370;2022-12-18T00:06:13;-3.40;99.90
9772;DHT22;4925;52.588;13.370;2022-12-18T00:08:40;-3.30;99.90
9772;DHT22;4925;52.588;13.370;2022-12-18T00:11:08;-3.20;99.90
9772;DHT22;4925;52.588;13.370;2022-12-18T00:13:34;-2.50;99.90
9772;DHT22;4925;52.588;13.370;2022-12-18T00:16:05;-2.60;99.90
9772;DHT22;4925;52.588;13.370;2022-12-18T00:18:31;-3.20;99.90
9772;DHT22;4925;52.588;13.370;2022-12-18T00:21:05;-3.10;99.90
9772;DHT22;4925;52.588;13.370;2022-12-18T00:23:33;-3.10;99.90
9772;DHT22;4925;52.588;13.370;2022-12-18T00:26:04;-3.20;99.90
9772;DHT22;4925;52.588;13.370;2022-12-18T00:28:30;-3.30;99.90
9772;DHT22;4925;52.588;13.370;2022-12-18T00:31:13;-3.40;99.90
9772;DHT22;4925;52.588;13.370;2022-12-18T00:33:39;-3.40;99.90
9772;DHT22;4925;52.588;13.370;2022-12-18T00:36:09;-3.40;99.90
9772;DHT22;4925;52.588;13.370;2022-12-18T00:38:35;-3.80;99.90
9772;DHT22;4925;52.588;13.370;2022-12-18T00:41:01;-3.70;99.90
9772;DHT22;4925;52.588;13.370;2022-12-18T00:43:27;-3.70;99.90
9772;DHT22;4925;52.588;13.370;2022-12-18T00:45:53;-3.60;99.90
9772;DHT22;4925;52.588;13.370;2022-12-18T00:48:18;-3.60;99.90
9772;DHT22;4925;52.588;13.370;2022-12-18T00:50:44;-3.80;99.90
9772;DHT22;4925;52.588;13.370;2022-12-18T00:53:11;-3.70;99.90
9772;DHT22;4925;52.588;13.370;2022-12-18T00:55:40;-3.50;99.90
9772;DHT22;4925;52.588;13.370;2022-12-18T00:58:07;-3.30;99.90
9772;DHT22;4925;52.588;13.370;2022-12-18T01:00:33;-3.50;99.90
9772;DHT22;4925;52.588;13.370;2022-12-18T01:02:59;-3.50;99.90
9772;DHT22;4925;52.588;13.370;2022-12-18T01:05:25;-3.40;99.90
9772;DHT22;4925;52.588;13.370;2022-12-18T01:07:51;-3.70;99.90
9772;DHT22;4925;52.588;13.370;2022-12-18T01:10:16;-3.60;99.90
9772;DHT22;4925;52.588;13.370;2022-12-18T01:12:42;-3.60;99.90
9772;DHT22;4925;52.588;13.370;2022-12-18T01:15:10;-3.70;99.90
9772;DHT22;4925;52.588;13.370;2022-12-18T01:17:37;-3.60;99.90
9772;DHT22;4925;52.588;13.370;2022-12-18T01:20:03;-3.40;99.90
9772;DHT22;4925;52.588;13.370;2022-12-18T01:22:29;-3.70;99.90
9772;DHT22;4925;52.588;13.370;2022-12-18T01:24:55;-3.70;99.90
9772;DHT22;4925;52.588;13.370;2022-12-18T01:27:20;-3.80;99.90
9772;DHT22;4925;52.588;13.370;2022-12-18T01:29:46;-4.00;99.90
9772;DHT22;4925;52.588;13.370;2022-12-18T01:32:12;-3.90;99.90
9772;DHT22;4925;52.588;13.370;2022-12-18T01:34:38;-3.80;99.90
9772;DHT22;4925;52.588;13.370;2022-12-18T01:37:04;-4.00;99.90
9772;DHT22;4925;52.588;13.370;2022-12-18T01:39:30;-4.10;99.90
9772;DHT22;4925;52.588;13.370;2022-12-18T01:41:58;-4.40;99.90
9772;DHT22;4925;52.588;13.370;2022-12-18T01:50:32;-4.50;99.90
9772;DHT22;4925;52.588;13.370;2022-12-18T01:53:05;-4.60;99.90
9772;DHT22;4925;52.588;13.370;2022-12-18T01:55:40;-4.50;99.90
9772;DHT22;4925;52.588;13.370;2022-12-18T01:58:07;-4.40;99.90
9772;DHT22;4925;52.588;13.370;2022-12-18T02:00:33;-4.30;99.90
9772;DHT22;4925;52.588;13.370;2022-12-18T02:02:59;-4.30;99.90
9772;DHT22;4925;52.588;13.370;2022-12-18T02:08:14;-4.20;99.90
9772;DHT22;4925;52.588;13.370;2022-12-18T02:10:48;-4.20;99.90
9772;DHT22;4925;52.588;13.370;2022-12-18T02:16:19;-4.30;99.90
9772;DHT22;4925;52.588;13.370;2022-12-18T02:18:50;-4.40;99.90
9772;DHT22;4925;52.588;13.370;2022-12-18T02:26:37;-4.60;99.90
9772;DHT22;4925;52.588;13.370;2022-12-18T02:29:18;-4.70;99.90
9772;DHT22;4925;52.588;13.370;2022-12-18T02:31:55;-4.70;99.90
9772;DHT22;4925;52.588;13.370;2022-12-18T02:34:25;-4.40;99.90
9772;DHT22;4925;52.588;13.370;2022-12-18T02:36:53;-4.40;99.90
9772;DHT22;4925;52.588;13.370;2022-12-18T02:39:20;-4.30;99.90
9772;DHT22;4925;52.588;13.370;2022-12-18T02:41:47;-4.30;99.90
9772;DHT22;4925;52.588;13.370;2022-12-18T02:44:14;-4.30;99.90
9772;DHT22;4925;52.588;13.370;2022-12-18T02:46:42;-4.40;99.90
9772;DHT22;4925;52.588;13.370;2022-12-18T02:52:20;-4.30;99.90
9772;DHT22;4925;52.588;13.370;2022-12-18T02:55:13;-4.40;99.90
9772;DHT22;4925;52.588;13.370;2022-12-18T02:57:57;-4.50;99.90
9772;DHT22;4925;52.588;13.370;2022-12-18T03:03:19;-4.50;99.90
9772;DHT22;4925;52.588;13.370;2022-12-18T03:06:04;-4.60;99.90
9772;DHT22;4925;52.588;13.370;2022-12-18T03:08:36;-4.50;99.90
9772;DHT22;4925;52.588;13.370;2022-12-18T03:11:06;-4.40;99.90
9772;DHT22;4925;52.588;13.370;2022-12-18T03:13:56;-4.30;99.90
9772;DHT22;4925;52.588;13.370;2022-12-18T03:16:29;-4.40;99.90
9772;DHT22;4925;52.588;13.370;2022-12-18T03:19:01;-4.40;99.90
9772;DHT22;4925;52.588;13.370;2022-12-18T03:21:34;-4.30;99.90
9772;DHT22;4925;52.588;13.370;2022-12-18T03:24:06;-4.40;99.90
9772;DHT22;4925;52.588;13.370;2022-12-18T03:26:33;-4.50;99.90
9772;DHT22;4925;52.588;13.370;2022-12-18T03:29:07;-4.60;99.90
9772;DHT22;4925;52.588;13.370;2022-12-18T03:31:37;-4.60;99.90
9772;DHT22;4925;52.588;13.370;2022-12-18T03:34:09;-4.50;99.90
9772;DHT22;4925;52.588;13.370;2022-12-18T03:36:37;-4.70;99.90
9772;DHT22;4925;52.588;13.370;2022-12-18T03:39:02;-4.70;99.90
9772;DHT22;4925;52.588;13.370;2022-12-18T03:41:39;-4.80;99.90
9772;DHT22;4925;52.588;13.370;2022-12-18T03:47:10;-4.70;99.90
9772;DHT22;4925;52.588;13.370;2022-12-18T03:49:55;-4.80;99.90
9772;DHT22;4925;52.588;13.370;2022-12-18T03:52:26;-4.90;99.90
9772;DHT22;4925;52.588;13.370;2022-12-18T03:54:55;-5.10;99.90
9772;DHT22;4925;52.588;13.370;2022-12-18T03:57:26;-5.00;99.90
9772;DHT22;4925;52.588;13.370;2022-12-18T03:59:57;-5.00;99.90
9772;DHT22;4925;52.588;13.370;2022-12-18T04:02:25;-5.00;99.90
9772;DHT22;4925;52.588;13.370;2022-12-18T04:04:53;-5.00;99.90
9772;DHT22;4925;52.588;13.370;2022-12-18T04:07:20;-5.00;99.90
9772;DHT22;4925;52.588;13.370;2022-12-18T04:09:48;-4.90;99.90
9772;DHT22;4925;52.588;13.370;2022-12-18T04:12:15;-4.90;99.90
9772;DHT22;4925;52.588;13.370;2022-12-18T04:14:41;-4.70;99.90
9772;DHT22;4925;52.588;13.370;2022-12-18T04:17:06;-4.60;99.90
9772;DHT22;4925;52.588;13.370;2022-12-18T04:19:32;-4.40;99.90
9772;DHT22;4925;52.588;13.370;2022-12-18T04:21:58;-4.30;99.90
9772;DHT22;4925;52.588;13.370;2022-12-18T04:24:23;-4.20;99.90
9772;DHT22;4925;52.588;13.370;2022-12-18T04:26:49;-3.10;99.90
9772;DHT22;4925;52.588;13.370;2022-12-18T04:29:15;-4.30;99.90
9772;DHT22;4925;52.588;13.370;2022-12-18T04:31:41;-4.20;99.90
9772;DHT22;4925;52.588;13.370;2022-12-18T04:34:06;-4.40;99.90
9772;DHT22;4925;52.588;13.370;2022-12-18T04:36:32;-4.40;99.90
9772;DHT22;4925;52.588;13.370;2022-12-18T04:38:57;-4.40;99.90
9772;DHT22;4925;52.588;13.370;2022-12-18T04:41:23;-4.50;99.90
9772;DHT22;4925;52.588;13.370;2022-12-18T04:43:49;-4.60;99.90
9772;DHT22;4925;52.588;13.370;2022-12-18T04:46:14;-4.70;99.90
9772;DHT22;4925;52.588;13.370;2022-12-18T04:48:40;-4.80;99.90
9772;DHT22;4925;52.588;13.370;2022-12-18T04:51:06;-4.80;99.90
9772;DHT22;4925;52.588;13.370;2022-12-18T04:53:33;-4.90;99.90
9772;DHT22;4925;52.588;13.370;2022-12-18T04:56:04;-4.80;99.90
9772;DHT22;4925;52.588;13.370;2022-12-18T04:58:30;-4.70;99.90
9772;DHT22;4925;52.588;13.370;2022-12-18T05:00:55;-4.50;99.90
9772;DHT22;4925;52.588;13.370;2022-12-18T05:03:21;-4.70;99.90
9772;DHT22;4925;52.588;13.370;2022-12-18T05:05:50;-4.60;99.90
9772;DHT22;4925;52.588;13.370;2022-12-18T05:08:16;-4.50;99.90
9772;DHT22;4925;52.588;13.370;2022-12-18T05:10:42;-4.90;99.90
9772;DHT22;4925;52.588;13.370;2022-12-18T05:13:08;-4.80;99.90
9772;DHT22;4925;52.588;13.370;2022-12-18T05:15:34;-4.80;99.90
9772;DHT22;4925;52.588;13.370;2022-12-18T05:18:00;-5.00;99.90
9772;DHT22;4925;52.588;13.370;2022-12-18T05:20:27;-4.90;99.90
9772;DHT22;4925;52.588;13.370;2022-12-18T05:22:53;-4.80;99.90
9772;DHT22;4925;52.588;13.370;2022-12-18T05:25:20;-4.90;99.90
9772;DHT22;4925;52.588;13.370;2022-12-18T05:27:46;-4.70;99.90
9772;DHT22;4925;52.588;13.370;2022-12-18T05:30:13;-4.80;99.90
9772;DHT22;4925;52.588;13.370;2022-12-18T05:32:39;-4.70;99.90
9772;DHT22;4925;52.588;13.370;2022-12-18T05:35:06;-4.80;99.90
9772;DHT22;4925;52.588;13.370;2022-12-18T05:37:33;-4.70;99.90
9772;DHT22;4925;52.588;13.370;2022-12-18T05:39:59;-4.80;99.90
9772;DHT22;4925;52.588;13.370;2022-12-18T05:42:24;-4.80;99.90
9772;DHT22;4925;52.588;13.370;2022-12-18T05:44:50;-4.30;99.90
9772;DHT22;4925;52.588;13.370;2022-12-18T05:47:16;-4.80;99.90
9772;DHT22;4925;52.588;13.370;2022-12-18T05:49:42;-4.90;99.90
9772;DHT22;4925;52.588;13.370;2022-12-18T05:52:08;-5.00;99.90
9772;DHT22;4925;52.588;13.370;2022-12-18T05:54:34;-4.90;99.90
9772;DHT22;4925;52.588;13.370;2022-12-18T05:57:00;-5.10;99.90
9772;DHT22;4925;52.588;13.370;2022-12-18T05:59:25;-5.10;99.90
9772;DHT22;4925;52.588;13.370;2022-12-18T06:01:51;-5.00;99.90
9772;DHT22;4925;52.588;13.370;2022-12-18T06:04:17;-5.10;99.90
9772;DHT22;4925;52.588;13.370;2022-12-18T06:06:42;-5.10;99.90
9772;DHT22;4925;52.588;13.370;2022-12-18T06:09:08;-4.90;99.90
9772;DHT22;4925;52.588;13.370;2022-12-18T06:11:36;-4.70;99.90
9772;DHT22;4925;52.588;13.370;2022-12-18T06:14:03;-4.60;99.90
9772;DHT22;4925;52.588;13.370;2022-12-18T06:16:30;-4.60;99.90
9772;DHT22;4925;52.588;13.370;2022-12-18T06:18:59;-4.60;99.90
9772;DHT22;4925;52.588;13.370;2022-12-18T06:21:26;-4.70;99.90
9772;DHT22;4925;52.588;13.370;2022-12-18T06:23:52;-4.80;99.90
9772;DHT22;4925;52.588;13.370;2022-12-18T06:26:17;-4.80;99.90
9772;DHT22;4925;52.588;13.370;2022-12-18T06:28:43;-4.40;99.90
9772;DHT22;4925;52.588;13.370;2022-12-18T06:31:09;-5.00;99.90
9772;DHT22;4925;52.588;13.370;2022-12-18T06:33:35;-4.90;99.90
9772;DHT22;4925;52.588;13.370;2022-12-18T06:36:07;-5.00;99.90
9772;DHT22;4925;52.588;13.370;2022-12-18T06:38:34;-5.00;99.90
9772;DHT22;4925;52.588;13.370;2022-12-18T06:41:00;-5.10;99.90
9772;DHT22;4925;52.588;13.370;2022-12-18T06:43:26;-5.10;99.90
9772;DHT22;4925;52.588;13.370;2022-12-18T06:45:59;-5.10;99.90
9772;DHT22;4925;52.588;13.370;2022-12-18T06:48:24;-5.10;99.90
9772;DHT22;4925;52.588;13.370;2022-12-18T06:50:50;-5.50;99.90
9772;DHT22;4925;52.588;13.370;2022-12-18T06:53:16;-5.00;99.90
9772;DHT22;4925;52.588;13.370;2022-12-18T06:55:41;-4.90;99.90
9772;DHT22;4925;52.588;13.370;2022-12-18T06:58:07;-4.50;99.90
9772;DHT22;4925;52.588;13.370;2022-12-18T07:00:33;-4.70;99.90
9772;DHT22;4925;52.588;13.370;2022-12-18T07:02:59;-4.80;99.90
9772;DHT22;4925;52.588;13.370;2022-12-18T07:05:24;-4.90;99.90
9772;DHT22;4925;52.588;13.370;2022-12-18T07:07:50;-4.80;99.90
9772;DHT22;4925;52.588;13.370;2022-12-18T07:10:15;-4.90;99.90
9772;DHT22;4925;52.588;13.370;2022-12-18T07:12:41;-4.90;99.90
9772;DHT22;4925;52.588;13.370;2022-12-18T07:15:07;-5.00;99.90
9772;DHT22;4925;52.588;13.370;2022-12-18T07:17:33;-5.10;99.90
9772;DHT22;4925;52.588;13.370;2022-12-18T07:19:58;-5.00;99.90
9772;DHT22;4925;52.588;13.370;2022-12-18T07:22:27;-4.90;99.90
9772;DHT22;4925;52.588;13.370;2022-12-18T07:24:53;-4.90;99.90
9772;DHT22;4925;52.588;13.370;2022-12-18T07:27:19;-4.60;99.90
9772;DHT22;4925;52.588;13.370;2022-12-18T07:29:44;-4.60;99.90
9772;DHT22;4925;52.588;13.370;2022-12-18T07:32:10;-4.50;99.90
9772;DHT22;4925;52.588;13.370;2022-12-18T07:34:36;-4.30;99.90
9772;DHT22;4925;52.588;13.370;2022-12-18T07:37:01;-4.30;99.90
9772;DHT22;4925;52.588;13.370;2022-12-18T07:39:27;-4.20;99.90
9772;DHT22;4925;52.588;13.370;2022-12-18T07:41:53;-4.10;99.90
9772;DHT22;4925;52.588;13.370;2022-12-18T07:44:37;-3.30;99.90
9772;DHT22;4925;52.588;13.370;2022-12-18T07:47:03;-4.00;99.90
9772;DHT22;4925;52.588;13.370;2022-12-18T07:49:29;-4.00;99.90
9772;DHT22;4925;52.588;13.370;2022-12-18T07:51:55;-4.10;99.90
9772;DHT22;4925;52.588;13.370;2022-12-18T07:54:22;-4.00;99.90
9772;DHT22;4925;52.588;13.370;2022-12-18T07:56:48;-4.10;99.90
9772;DHT22;4925;52.588;13.370;2022-12-18T07:59:14;-4.10;99.90
9772;DHT22;4925;52.588;13.370;2022-12-18T08:01:39;-4.10;99.90
9772;DHT22;4925;52.588;13.370;2022-12-18T08:04:05;-4.30;99.90
9772;DHT22;4925;52.588;13.370;2022-12-18T08:06:31;-4.50;99.90
9772;DHT22;4925;52.588;13.370;2022-12-18T08:08:57;-4.60;99.90
9772;DHT22;4925;52.588;13.370;2022-12-18T08:11:24;-4.60;99.90
9772;DHT22;4925;52.588;13.370;2022-12-18T08:13:51;-4.50;99.90
9772;DHT22;4925;52.588;13.370;2022-12-18T08:16:17;-4.10;99.90
9772;DHT22;4925;52.588;13.370;2022-12-18T08:18:43;-4.50;99.90
9772;DHT22;4925;52.588;13.370;2022-12-18T08:21:17;-4.50;99.90
9772;DHT22;4925;52.588;13.370;2022-12-18T08:23:44;-4.50;99.90
9772;DHT22;4925;52.588;13.370;2022-12-18T08:26:13;-4.50;99.90
9772;DHT22;4925;52.588;13.370;2022-12-18T08:28:40;-4.20;99.90
9772;DHT22;4925;52.588;13.370;2022-12-18T08:31:06;-4.40;99.90
9772;DHT22;4925;52.588;13.370;2022-12-18T08:33:32;-4.30;99.90
9772;DHT22;4925;52.588;13.370;2022-12-18T08:35:59;-4.20;99.90
9772;DHT22;4925;52.588;13.370;2022-12-18T08:38:25;-4.40;99.90
9772;DHT22;4925;52.588;13.370;2022-12-18T08:41:05;-4.20;99.90
9772;DHT22;4925;52.588;13.370;2022-12-18T08:43:31;-4.10;99.90
9772;DHT22;4925;52.588;13.370;2022-12-18T08:46:16;-4.00;99.90
9772;DHT22;4925;52.588;13.370;2022-12-18T08:48:42;-3.90;99.90
9772;DHT22;4925;52.588;13.370;2022-12-18T08:51:08;-3.80;99.90
9772;DHT22;4925;52.588;13.370;2022-12-18T08:53:35;-3.90;99.90
9772;DHT22;4925;52.588;13.370;2022-12-18T08:56:01;-4.00;99.90
9772;DHT22;4925;52.588;13.370;2022-12-18T08:58:27;-4.10;99.90
9772;DHT22;4925;52.588;13.370;2022-12-18T09:00:53;-4.20;99.90
9772;DHT22;4925;52.588;13.370;2022-12-18T09:03:19;-4.30;99.90
9772;DHT22;4925;52.588;13.370;2022-12-18T09:05:48;-4.30;99.90
9772;DHT22;4925;52.588;13.370;2022-12-18T09:08:14;-4.20;99.90
9772;DHT22;4925;52.588;13.370;2022-12-18T09:10:47;-4.10;99.90
9772;DHT22;4925;52.588;13.370;2022-12-18T09:13:14;-4.20;99.90
9772;DHT22;4925;52.588;13.370;2022-12-18T09:15:52;-4.10;99.90
9772;DHT22;4925;52.588;13.370;2022-12-18T09:18:20;-4.10;99.90
9772;DHT22;4925;52.588;13.370;2022-12-18T09:20:46;-4.00;99.90
9772;DHT22;4925;52.588;13.370;2022-12-18T09:23:12;-3.90;99.90
9772;DHT22;4925;52.588;13.370;2022-12-18T09:25:38;-4.00;99.90
9772;DHT22;4925;52.588;13.370;2022-12-18T09:28:09;-3.80;99.90
9772;DHT22;4925;52.588;13.370;2022-12-18T09:30:38;-3.80;99.90
9772;DHT22;4925;52.588;13.370;2022-12-18T09:33:04;-3.80;99.90
9772;DHT22;4925;52.588;13.370;2022-12-18T09:35:29;-3.90;99.90
9772;DHT22;4925;52.588;13.370;2022-12-18T09:37:55;-3.70;99.90
9772;DHT22;4925;52.588;13.370;2022-12-18T09:40:23;-3.70;99.90
9772;DHT22;4925;52.588;13.370;2022-12-18T09:42:55;-3.70;99.90
9772;DHT22;4925;52.588;13.370;2022-12-18T09:45:23;-3.60;99.90
9772;DHT22;4925;52.588;13.370;2022-12-18T09:47:50;-3.50;99.90
9772;DHT22;4925;52.588;13.370;2022-12-18T09:50:31;-3.50;99.90
9772;DHT22;4925;52.588;13.370;2022-12-18T09:53:02;-3.50;99.90
9772;DHT22;4925;52.588;13.370;2022-12-18T09:55:38;-3.40;99.90
9772;DHT22;4925;52.588;13.370;2022-12-18T09:58:12;-3.40;99.90
9772;DHT22;4925;52.588;13.370;2022-12-18T10:00:39;-3.30;99.90
9772;DHT22;4925;52.588;13.370;2022-12-18T10:03:13;-3.60;99.90
9772;DHT22;4925;52.588;13.370;2022-12-18T10:05:46;-3.40;99.90
9772;DHT22;4925;52.588;13.370;2022-12-18T10:10:51;-3.70;99.90
9772;DHT22;4925;52.588;13.370;2022-12-18T10:13:29;-3.70;99.90
9772;DHT22;4925;52.588;13.370;2022-12-18T10:16:14;-3.80;99.90
9772;DHT22;4925;52.588;13.370;2022-12-18T10:19:12;-3.90;99.90
9772;DHT22;4925;52.588;13.370;2022-12-18T10:21:51;-3.90;99.90
9772;DHT22;4925;52.588;13.370;2022-12-18T10:24:35;-3.90;99.90
9772;DHT22;4925;52.588;13.370;2022-12-18T10:27:24;-3.80;99.90
9772;DHT22;4925;52.588;13.370;2022-12-18T10:29:51;-3.80;99.90
9772;DHT22;4925;52.588;13.370;2022-12-18T10:32:20;-3.70;99.90
9772;DHT22;4925;52.588;13.370;2022-12-18T10:34:47;-3.50;99.90
9772;DHT22;4925;52.588;13.370;2022-12-18T10:37:20;-3.50;99.90
9772;DHT22;4925;52.588;13.370;2022-12-18T10:40:13;-3.20;99.90
9772;DHT22;4925;52.588;13.370;2022-12-18T10:42:39;-3.40;99.90
9772;DHT22;4925;52.588;13.370;2022-12-18T10:45:16;-3.40;99.90
9772;DHT22;4925;52.588;13.370;2022-12-18T10:47:46;-3.30;99.90
9772;DHT22;4925;52.588;13.370;2022-12-18T10:50:34;-3.30;99.90
9772;DHT22;4925;52.588;13.370;2022-12-18T10:53:04;-3.20;99.90
9772;DHT22;4925;52.588;13.370;2022-12-18T10:55:44;-3.20;99.90
9772;DHT22;4925;52.588;13.370;2022-12-18T10:58:30;-3.40;99.90
9772;DHT22;4925;52.588;13.370;2022-12-18T11:01:07;-3.30;99.90
9772;DHT22;4925;52.588;13.370;2022-12-18T11:03:39;-3.40;99.90
9772;DHT22;4925;52.588;13.370;2022-12-18T11:06:16;-3.30;99.90
9772;DHT22;4925;52.588;13.370;2022-12-18T11:08:46;-3.20;99.90
9772;DHT22;4925;52.588;13.370;2022-12-18T11:11:23;-3.20;99.90
9772;DHT22;4925;52.588;13.370;2022-12-18T11:14:17;-3.10;99.90
9772;DHT22;4925;52.588;13.370;2022-12-18T11:16:45;-2.90;99.90
9772;DHT22;4925;52.588;13.370;2022-12-18T11:19:32;-2.70;99.90
9772;DHT22;4925;52.588;13.370;2022-12-18T11:21:58;-2.60;99.90
9772;DHT22;4925;52.588;13.370;2022-12-18T11:24:35;-2.60;99.90
9772;DHT22;4925;52.588;13.370;2022-12-18T11:27:05;-2.70;99.90
9772;DHT22;4925;52.588;13.370;2022-12-18T11:29:36;-2.60;99.90
9772;DHT22;4925;52.588;13.370;2022-12-18T11:34:43;-2.80;99.90
9772;DHT22;4925;52.588;13.370;2022-12-18T11:37:11;-2.90;99.90
9772;DHT22;4925;52.588;13.370;2022-12-18T11:39:44;-2.90;99.90
9772;DHT22;4925;52.588;13.370;2022-12-18T11:42:24;-2.80;99.90
9772;DHT22;4925;52.588;13.370;2022-12-18T11:44:59;-2.90;99.90
9772;DHT22;4925;52.588;13.370;2022-12-18T11:50:54;-2.90;99.90
9772;DHT22;4925;52.588;13.370;2022-12-18T11:53:20;-3.00;99.90
9772;DHT22;4925;52.588;13.370;2022-12-18T11:55:51;-2.80;99.90
9772;DHT22;4925;52.588;13.370;2022-12-18T11:58:35;-2.80;99.90
9772;DHT22;4925;52.588;13.370;2022-12-18T12:25:05;-2.80;99.90
9772;DHT22;4925;52.588;13.370;2022-12-18T12:27:57;-2.80;99.90
9772;DHT22;4925;52.588;13.370;2022-12-18T12:35:58;-2.60;99.90
9772;DHT22;4925;52.588;13.370;2022-12-18T12:38:50;-2.70;99.90
9772;DHT22;4925;52.588;13.370;2022-12-18T12:41:20;-2.80;99.90
9772;DHT22;4925;52.588;13.370;2022-12-18T12:44:08;-2.80;99.90
9772;DHT22;4925;52.588;13.370;2022-12-18T12:46:37;-2.60;99.90
9772;DHT22;4925;52.588;13.370;2022-12-18T12:49:18;-2.60;99.90
9772;DHT22;4925;52.588;13.370;2022-12-18T12:52:12;-2.70;99.90
9772;DHT22;4925;52.588;13.370;2022-12-18T12:54:39;-2.70;99.90
9772;DHT22;4925;52.588;13.370;2022-12-18T12:57:14;-2.60;99.90
9772;DHT22;4925;52.588;13.370;2022-12-18T12:59:52;-2.80;99.90
9772;DHT22;4925;52.588;13.370;2022-12-18T13:02:39;-2.90;99.90
9772;DHT22;4925;52.588;13.370;2022-12-18T13:10:40;-3.10;99.90
9772;DHT22;4925;52.588;13.370;2022-12-18T13:13:16;-3.20;99.90
9772;DHT22;4925;52.588;13.370;2022-12-18T13:15:48;-3.10;99.90
9772;DHT22;4925;52.588;13.370;2022-12-18T13:18:23;-3.00;99.90
9772;DHT22;4925;52.588;13.370;2022-12-18T13:21:31;-3.00;99.90
9772;DHT22;4925;52.588;13.370;2022-12-18T13:23:56;-2.90;99.90
9772;DHT22;4925;52.588;13.370;2022-12-18T13:28:52;-2.70;99.90
9772;DHT22;4925;52.588;13.370;2022-12-18T13:34:25;-2.70;99.90
9772;DHT22;4925;52.588;13.370;2022-12-18T13:36:51;-2.60;99.90
9772;DHT22;4925;52.588;13.370;2022-12-18T13:41:45;-2.60;99.90
9772;DHT22;4925;52.588;13.370;2022-12-18T13:44:33;-2.60;99.90
9772;DHT22;4925;52.588;13.370;2022-12-18T13:47:01;-2.70;99.90
9772;DHT22;4925;52.588;13.370;2022-12-18T13:49:40;-2.70;99.90
9772;DHT22;4925;52.588;13.370;2022-12-18T13:52:34;-2.80;99.90
9772;DHT22;4925;52.588;13.370;2022-12-18T13:55:04;-2.70;99.90
9772;DHT22;4925;52.588;13.370;2022-12-18T13:57:36;-2.70;99.90
9772;DHT22;4925;52.588;13.370;2022-12-18T14:02:47;-2.90;99.90
9772;DHT22;4925;52.588;13.370;2022-12-18T14:05:32;-2.90;99.90
9772;DHT22;4925;52.588;13.370;2022-12-18T14:08:13;-2.90;99.90
9772;DHT22;4925;52.588;13.370;2022-12-18T14:10:41;-2.90;99.90
9772;DHT22;4925;52.588;13.370;2022-12-18T14:13:09;-2.90;99.90
9772;DHT22;4925;52.588;13.370;2022-12-18T14:15:43;-2.80;99.90
9772;DHT22;4925;52.588;13.370;2022-12-18T14:20:53;-2.90;99.90
9772;DHT22;4925;52.588;13.370;2022-12-18T14:25:56;-2.80;99.90
9772;DHT22;4925;52.588;13.370;2022-12-18T14:28:22;-2.80;99.90
9772;DHT22;4925;52.588;13.370;2022-12-18T14:30:48;-2.90;99.90
9772;DHT22;4925;52.588;13.370;2022-12-18T14:33:17;-2.80;99.90
9772;DHT22;4925;52.588;13.370;2022-12-18T14:36:01;-2.90;99.90
9772;DHT22;4925;52.588;13.370;2022-12-18T14:38:34;-2.90;99.90
9772;DHT22;4925;52.588;13.370;2022-12-18T14:41:15;-2.80;99.90
9772;DHT22;4925;52.588;13.370;2022-12-18T14:43:42;-2.90;99.90
9772;DHT22;4925;52.588;13.370;2022-12-18T14:48:59;-3.00;99.90
9772;DHT22;4925;52.588;13.370;2022-12-18T14:51:27;-2.90;99.90
9772;DHT22;4925;52.588;13.370;2022-12-18T14:54:05;-3.00;99.90
9772;DHT22;4925;52.588;13.370;2022-12-18T14:56:37;-3.00;99.90
9772;DHT22;4925;52.588;13.370;2022-12-18T14:59:20;-2.90;99.90
9772;DHT22;4925;52.588;13.370;2022-12-18T15:04:37;-3.10;99.90
9772;DHT22;4925;52.588;13.370;2022-12-18T15:07:18;-3.20;99.90
9772;DHT22;4925;52.588;13.370;2022-12-18T15:10:17;-3.40;99.90
9772;DHT22;4925;52.588;13.370;2022-12-18T15:12:47;-3.30;99.90
9772;DHT22;4925;52.588;13.370;2022-12-18T15:20:56;-3.30;99.90
9772;DHT22;4925;52.588;13.370;2022-12-18T15:23:33;-3.50;99.90
9772;DHT22;4925;52.588;13.370;2022-12-18T15:26:07;-3.40;99.90
9772;DHT22;4925;52.588;13.370;2022-12-18T15:33:40;-3.50;99.90
9772;DHT22;4925;52.588;13.370;2022-12-18T15:36:15;-3.50;99.90
9772;DHT22;4925;52.588;13.370;2022-12-18T15:38:41;-3.40;99.90
9772;DHT22;4925;52.588;13.370;2022-12-18T15:41:14;-3.40;99.90
9772;DHT22;4925;52.588;13.370;2022-12-18T15:43:40;-3.30;99.90
9772;DHT22;4925;52.588;13.370;2022-12-18T15:46:16;-3.40;99.90
9772;DHT22;4925;52.588;13.370;2022-12-18T15:48:44;-3.40;99.90
9772;DHT22;4925;52.588;13.370;2022-12-18T15:51:31;-3.30;99.90
9772;DHT22;4925;52.588;13.370;2022-12-18T15:54:00;-3.30;99.90
9772;DHT22;4925;52.588;13.370;2022-12-18T15:56:26;-3.20;99.90
9772;DHT22;4925;52.588;13.370;2022-12-18T15:59:15;-3.30;99.90
9772;DHT22;4925;52.588;13.370;2022-12-18T16:01:43;-3.30;99.90
9772;DHT22;4925;52.588;13.370;2022-12-18T16:04:14;-3.30;99.90
9772;DHT22;4925;52.588;13.370;2022-12-18T16:06:40;-3.20;99.90
9772;DHT22;4925;52.588;13.370;2022-12-18T16:09:07;-3.40;99.90
9772;DHT22;4925;52.588;13.370;2022-12-18T16:11:34;-3.30;99.90
9772;DHT22;4925;52.588;13.370;2022-12-18T16:14:24;-3.50;99.90
9772;DHT22;4925;52.588;13.370;2022-12-18T16:16:58;-3.50;99.90
9772;DHT22;4925;52.588;13.370;2022-12-18T16:19:24;-3.60;99.90
9772;DHT22;4925;52.588;13.370;2022-12-18T16:21:52;-3.60;99.90
9772;DHT22;4925;52.588;13.370;2022-12-18T16:24:19;-3.30;99.90
9772;DHT22;4925;52.588;13.370;2022-12-18T16:26:47;-3.50;99.90
9772;DHT22;4925;52.588;13.370;2022-12-18T16:29:13;-3.60;99.90
9772;DHT22;4925;52.588;13.370;2022-12-18T16:31:39;-3.60;99.90
9772;DHT22;4925;52.588;13.370;2022-12-18T16:34:24;-3.60;99.90
9772;DHT22;4925;52.588;13.370;2022-12-18T16:37:13;-3.60;99.90
9772;DHT22;4925;52.588;13.370;2022-12-18T16:39:40;-3.50;99.90
9772;DHT22;4925;52.588;13.370;2022-12-18T16:42:10;-3.50;99.90
9772;DHT22;4925;52.588;13.370;2022-12-18T16:44:42;-3.50;99.90
9772;DHT22;4925;52.588;13.370;2022-12-18T16:47:08;-3.50;99.90
9772;DHT22;4925;52.588;13.370;2022-12-18T16:49:34;-3.50;99.90
9772;DHT22;4925;52.588;13.370;2022-12-18T16:52:01;-3.40;99.90
9772;DHT22;4925;52.588;13.370;2022-12-18T16:54:27;-3.40;99.90
9772;DHT22;4925;52.588;13.370;2022-12-18T16:56:56;-3.40;99.90
9772;DHT22;4925;52.588;13.370;2022-12-18T16:59:22;-3.40;99.90
9772;DHT22;4925;52.588;13.370;2022-12-18T17:01:49;-3.40;99.90
9772;DHT22;4925;52.588;13.370;2022-12-18T17:04:16;-3.40;99.90
9772;DHT22;4925;52.588;13.370;2022-12-18T17:06:43;-3.50;99.90
9772;DHT22;4925;52.588;13.370;2022-12-18T17:09:13;-3.60;99.90
9772;DHT22;4925;52.588;13.370;2022-12-18T17:11:40;-3.40;99.90
9772;DHT22;4925;52.588;13.370;2022-12-18T17:14:14;-3.30;99.90
9772;DHT22;4925;52.588;13.370;2022-12-18T17:16:41;-3.30;99.90
9772;DHT22;4925;52.588;13.370;2022-12-18T17:19:07;-3.20;99.90
9772;DHT22;4925;52.588;13.370;2022-12-18T17:21:32;-3.10;99.90
9772;DHT22;4925;52.588;13.370;2022-12-18T17:24:01;-3.10;99.90
9772;DHT22;4925;52.588;13.370;2022-12-18T17:26:27;-3.20;99.90
9772;DHT22;4925;52.588;13.370;2022-12-18T17:28:56;-3.10;99.90
9772;DHT22;4925;52.588;13.370;2022-12-18T17:31:25;-3.20;99.90
9772;DHT22;4925;52.588;13.370;2022-12-18T17:33:51;-3.20;99.90
9772;DHT22;4925;52.588;13.370;2022-12-18T17:36:18;-2.90;99.90
9772;DHT22;4925;52.588;13.370;2022-12-18T17:38:50;-3.10;99.90
9772;DHT22;4925;52.588;13.370;2022-12-18T17:41:16;-2.80;99.90
9772;DHT22;4925;52.588;13.370;2022-12-18T17:43:41;-3.00;99.90
9772;DHT22;4925;52.588;13.370;2022-12-18T17:46:12;-3.10;99.90